Time,TemperatureF,DewpointF,PressureIn,WindDirection,WindDirectionDegrees,WindSpeedMPH,WindSpeedGustMPH,Humidity,HourlyPrecipIn,Conditions,Clouds,dailyrainin,SoftwareType,DateUTC
2013-02-23 00:01:00,13.0,7.0,-100.00,East,100,9.0,12.0,78,-99.99,,,-99.99,,2013-02-23 07:01:00,
2013-02-23 00:11:00,11.0,6.0,-100.00,East,90,10.0,12.0,78,-99.99,,,-99.99,,2013-02-23 07:11:00,
2013-02-23 00:21:00,11.0,6.0,-100.00,East,95,8.0,12.0,78,-99.99,,,-99.99,,2013-02-23 07:21:00,
2013-02-23 00:32:00,10.0,5.0,-100.00,East,100,7.0,9.0,79,-99.99,,,-99.99,,2013-02-23 07:32:00,
2013-02-23 00:41:00,10.0,5.0,-100.00,East,100,8.0,9.0,80,-99.99,,,-99.99,,2013-02-23 07:41:00,
2013-02-23 00:51:00,8.0,3.0,-100.00,East,90,9.0,11.0,80,-99.99,,,-99.99,,2013-02-23 07:51:00,
2013-02-23 01:01:00,9.0,4.0,-100.00,East,95,11.0,13.0,80,-99.99,,,-99.99,,2013-02-23 08:01:00,
2013-02-23 01:11:00,10.0,5.0,-100.00,East,95,11.0,12.0,80,-99.99,,,-99.99,,2013-02-23 08:11:00,
2013-02-23 01:21:00,10.0,5.0,-100.00,East,100,12.0,14.0,80,-99.99,,,-99.99,,2013-02-23 08:21:00,
2013-02-23 01:31:00,9.0,4.0,-100.00,East,95,10.0,14.0,80,-99.99,,,-99.99,,2013-02-23 08:31:00,
2013-02-23 01:42:00,9.0,4.0,-100.00,East,95,11.0,12.0,80,-99.99,,,-99.99,,2013-02-23 08:42:00,
2013-02-23 01:52:00,8.0,4.0,-100.00,ESE,110,9.0,12.0,80,-99.99,,,-99.99,,2013-02-23 08:52:00,
2013-02-23 02:01:00,9.0,4.0,-100.00,East,100,6.0,11.0,80,-99.99,,,-99.99,,2013-02-23 09:01:00,
2013-02-23 02:11:00,9.0,4.0,-100.00,ESE,110,9.0,11.0,80,-99.99,,,-99.99,,2013-02-23 09:11:00,
2013-02-23 02:21:00,8.0,2.0,-100.00,East,95,6.0,10.0,79,-99.99,,,-99.99,,2013-02-23 09:21:00,
2013-02-23 02:31:00,6.0,2.0,-100.00,East,95,10.0,11.0,80,-99.99,,,-99.99,,2013-02-23 09:31:00,
2013-02-23 02:41:00,6.0,2.0,-100.00,East,95,9.0,11.0,80,-99.99,,,-99.99,,2013-02-23 09:41:00,
2013-02-23 02:51:00,7.0,2.0,-100.00,SE,125,9.0,11.0,80,-99.99,,,-99.99,,2013-02-23 09:51:00,
2013-02-23 03:01:00,8.0,3.0,-100.00,SSE,155,6.0,9.0,80,-99.99,,,-99.99,,2013-02-23 10:01:00,
2013-02-23 03:11:00,8.0,3.0,-100.00,ESE,110,6.0,7.0,80,-99.99,,,-99.99,,2013-02-23 10:11:00,
2013-02-23 03:21:00,10.0,4.0,-100.00,SE,130,3.0,5.0,79,-99.99,,,-99.99,,2013-02-23 10:21:00,
2013-02-23 03:31:00,9.0,4.0,-100.00,SE,130,4.0,6.0,78,-99.99,,,-99.99,,2013-02-23 10:31:00,
2013-02-23 03:42:00,9.0,4.0,-100.00,SSE,150,3.0,4.0,78,-99.99,,,-99.99,,2013-02-23 10:42:00,
2013-02-23 03:51:00,9.0,4.0,-100.00,SSE,150,3.0,4.0,78,-99.99,,,-99.99,,2013-02-23 10:51:00,
2013-02-23 04:02:00,9.0,3.0,-100.00,ESE,120,2.0,4.0,78,-99.99,,,-99.99,,2013-02-23 11:02:00,
2013-02-23 04:11:00,8.0,3.0,-100.00,SE,135,4.0,6.0,78,-99.99,,,-99.99,,2013-02-23 11:11:00,
2013-02-23 04:21:00,7.0,2.0,-100.00,ESE,110,4.0,7.0,78,-99.99,,,-99.99,,2013-02-23 11:21:00,
2013-02-23 04:32:00,6.0,2.0,-100.00,SSE,150,4.0,6.0,79,-99.99,,,-99.99,,2013-02-23 11:32:00,
2013-02-23 04:42:00,7.0,2.0,-100.00,SE,130,7.0,8.0,80,-99.99,,,-99.99,,2013-02-23 11:42:00,
2013-02-23 04:52:00,8.0,3.0,-100.00,SE,135,7.0,8.0,80,-99.99,,,-99.99,,2013-02-23 11:52:00,
2013-02-23 05:02:00,8.0,3.0,-100.00,ESE,115,9.0,10.0,79,-99.99,,,-99.99,,2013-02-23 12:02:00,
2013-02-23 05:11:00,6.0,1.0,-100.00,ESE,115,10.0,11.0,78,-99.99,,,-99.99,,2013-02-23 12:11:00,
2013-02-23 05:21:00,7.0,1.0,-100.00,ESE,110,11.0,12.0,78,-99.99,,,-99.99,,2013-02-23 12:21:00,
2013-02-23 05:32:00,7.0,1.0,-100.00,ESE,105,7.0,11.0,77,-99.99,,,-99.99,,2013-02-23 12:32:00,
2013-02-23 05:42:00,7.0,1.0,-100.00,ESE,110,6.0,9.0,76,-99.99,,,-99.99,,2013-02-23 12:42:00,
2013-02-23 05:52:00,6.0,0.0,-100.00,ESE,120,6.0,8.0,76,-99.99,,,-99.99,,2013-02-23 12:52:00,
2013-02-23 06:01:00,5.0,0.0,-100.00,ESE,120,5.0,7.0,76,-99.99,,,-99.99,,2013-02-23 13:01:00,
2013-02-23 06:11:00,5.0,-1.0,-100.00,ESE,115,6.0,6.0,76,-99.99,,,-99.99,,2013-02-23 13:11:00,
2013-02-23 06:22:00,4.0,-2.0,-100.00,East,100,7.0,8.0,76,-99.99,,,-99.99,,2013-02-23 13:22:00,
2013-02-23 06:32:00,4.0,-2.0,-100.00,ESE,110,6.0,9.0,76,-99.99,,,-99.99,,2013-02-23 13:32:00,
2013-02-23 06:42:00,4.0,-1.0,-100.00,East,100,4.0,7.0,76,-99.99,,,-99.99,,2013-02-23 13:42:00,
2013-02-23 06:52:00,4.0,-1.0,-100.00,ESE,105,4.0,6.0,76,-99.99,,,-99.99,,2013-02-23 13:52:00,
2013-02-23 07:02:00,5.0,-1.0,-100.00,East,85,4.0,6.0,75,-99.99,,,-99.99,,2013-02-23 14:02:00,
2013-02-23 07:11:00,5.0,-1.0,-100.00,ESE,105,5.0,9.0,74,-99.99,,,-99.99,,2013-02-23 14:11:00,
2013-02-23 07:21:00,7.0,0.0,-100.00,ESE,120,6.0,6.0,73,-99.99,,,-99.99,,2013-02-23 14:21:00,
2013-02-23 07:32:00,8.0,1.0,-100.00,SSE,160,6.0,7.0,71,-99.99,,,-99.99,,2013-02-23 14:32:00,
2013-02-23 07:42:00,10.0,2.0,-100.00,SE,130,6.0,6.0,70,-99.99,,,-99.99,,2013-02-23 14:42:00,
2013-02-23 07:52:00,11.0,2.0,-100.00,SE,145,6.0,9.0,68,-99.99,,,-99.99,,2013-02-23 14:52:00,
2013-02-23 08:01:00,12.0,3.0,-100.00,SE,125,4.0,7.0,67,-99.99,,,-99.99,,2013-02-23 15:01:00,
2013-02-23 08:11:00,12.0,3.0,-100.00,SSE,155,5.0,7.0,66,-99.99,,,-99.99,,2013-02-23 15:11:00,
2013-02-23 08:21:00,12.0,3.0,-100.00,SSE,155,6.0,7.0,65,-99.99,,,-99.99,,2013-02-23 15:21:00,
2013-02-23 08:32:00,13.0,4.0,-100.00,SE,145,3.0,7.0,64,-99.99,,,-99.99,,2013-02-23 15:32:00,
2013-02-23 08:42:00,17.0,6.0,-100.00,SSE,165,2.0,4.0,61,-99.99,,,-99.99,,2013-02-23 15:42:00,
2013-02-23 08:51:00,17.0,5.0,-100.00,SSW,210,4.0,7.0,58,-99.99,,,-99.99,,2013-02-23 15:51:00,
2013-02-23 09:01:00,19.0,5.0,-100.00,South,170,6.0,7.0,55,-99.99,,,-99.99,,2013-02-23 16:01:00,
2013-02-23 09:11:00,19.0,5.0,-100.00,SSE,165,5.0,7.0,55,-99.99,,,-99.99,,2013-02-23 16:11:00,
2013-02-23 09:21:00,19.0,7.0,-100.00,South,175,5.0,7.0,59,-99.99,,,-99.99,,2013-02-23 16:21:00,
2013-02-23 09:31:00,20.0,8.0,-100.00,SSE,155,4.0,7.0,58,-99.99,,,-99.99,,2013-02-23 16:31:00,
2013-02-23 09:42:00,24.0,10.0,-100.00,South,185,2.0,6.0,54,-99.99,,,-99.99,,2013-02-23 16:42:00,
2013-02-23 09:51:00,26.0,10.0,-100.00,SSE,150,2.0,4.0,50,-99.99,,,-99.99,,2013-02-23 16:51:00,
2013-02-23 10:01:00,26.0,10.0,-100.00,SE,135,2.0,3.0,51,-99.99,,,-99.99,,2013-02-23 17:01:00,
2013-02-23 10:11:00,26.0,10.0,-100.00,SE,145,4.0,6.0,50,-99.99,,,-99.99,,2013-02-23 17:11:00,
2013-02-23 10:21:00,26.0,10.0,-100.00,SSE,160,3.0,6.0,48,-99.99,,,-99.99,,2013-02-23 17:21:00,
2013-02-23 10:31:00,28.0,10.0,-100.00,SE,130,1.0,3.0,45,-99.99,,,-99.99,,2013-02-23 17:31:00,
2013-02-23 10:41:00,29.0,10.0,-100.00,ESE,110,2.0,6.0,44,-99.99,,,-99.99,,2013-02-23 17:41:00,
2013-02-23 10:52:00,29.0,10.0,-100.00,ESE,110,2.0,6.0,44,-99.99,,,-99.99,,2013-02-23 17:52:00,
2013-02-23 11:01:00,33.0,11.0,-100.00,NNW,330,2.0,4.0,40,-99.99,,,-99.99,,2013-02-23 18:01:00,
2013-02-23 11:12:00,34.0,12.0,-100.00,SE,125,0.0,2.0,39,-99.99,,,-99.99,,2013-02-23 18:12:00,
2013-02-23 11:21:00,28.0,8.0,-100.00,SE,125,7.0,9.0,40,-99.99,,,-99.99,,2013-02-23 18:21:00,
2013-02-23 11:31:00,27.0,8.0,-100.00,SSE,155,4.0,7.0,43,-99.99,,,-99.99,,2013-02-23 18:31:00,
2013-02-23 11:42:00,27.0,8.0,-100.00,SE,130,4.0,6.0,43,-99.99,,,-99.99,,2013-02-23 18:42:00,
2013-02-23 11:51:00,30.0,10.0,-100.00,SSE,165,2.0,6.0,42,-99.99,,,-99.99,,2013-02-23 18:51:00,
2013-02-23 12:01:00,30.0,9.0,-100.00,East,100,3.0,4.0,41,-99.99,,,-99.99,,2013-02-23 19:01:00,
2013-02-23 12:11:00,29.0,9.0,-100.00,East,100,6.0,6.0,41,-99.99,,,-99.99,,2013-02-23 19:11:00,
2013-02-23 12:21:00,30.0,9.0,-100.00,ESE,120,3.0,7.0,40,-99.99,,,-99.99,,2013-02-23 19:21:00,
2013-02-23 12:32:00,30.0,9.0,-100.00,East,90,4.0,6.0,40,-99.99,,,-99.99,,2013-02-23 19:32:00,
2013-02-23 12:41:00,34.0,11.0,-100.00,NE,50,4.0,5.0,38,-99.99,,,-99.99,,2013-02-23 19:41:00,
2013-02-23 12:51:00,33.0,9.0,-100.00,NNE,30,5.0,7.0,36,-99.99,,,-99.99,,2013-02-23 19:51:00,
2013-02-23 13:01:00,34.0,11.0,-100.00,NE,50,4.0,7.0,36,-99.99,,,-99.99,,2013-02-23 20:01:00,
2013-02-23 13:11:00,35.0,12.0,-100.00,NNW,345,7.0,11.0,38,-99.99,,,-99.99,,2013-02-23 20:11:00,
2013-02-23 13:21:00,35.0,12.0,-100.00,NW,320,3.0,9.0,38,-99.99,,,-99.99,,2013-02-23 20:21:00,
2013-02-23 13:31:00,36.0,13.0,-100.00,NNW,340,6.0,7.0,38,-99.99,,,-99.99,,2013-02-23 20:31:00,
2013-02-23 13:41:00,37.0,14.0,-100.00,NNE,20,4.0,7.0,38,-99.99,,,-99.99,,2013-02-23 20:41:00,
2013-02-23 13:52:00,37.0,13.0,-100.00,North,10,4.0,7.0,38,-99.99,,,-99.99,,2013-02-23 20:52:00,
2013-02-23 14:01:00,37.0,15.0,-100.00,NNW,345,4.0,7.0,39,-99.99,,,-99.99,,2013-02-23 21:01:00,
2013-02-23 14:11:00,37.0,15.0,-100.00,NNW,345,6.0,9.0,40,-99.99,,,-99.99,,2013-02-23 21:11:00,
2013-02-23 14:22:00,37.0,15.0,-100.00,North,10,6.0,8.0,40,-99.99,,,-99.99,,2013-02-23 21:22:00,
2013-02-23 14:31:00,37.0,15.0,-100.00,North,10,8.0,10.0,40,-99.99,,,-99.99,,2013-02-23 21:31:00,
2013-02-23 14:41:00,37.0,16.0,-100.00,NNW,330,7.0,11.0,42,-99.99,,,-99.99,,2013-02-23 21:41:00,
2013-02-23 14:51:00,37.0,15.0,-100.00,North,5,9.0,12.0,40,-99.99,,,-99.99,,2013-02-23 21:51:00,
2013-02-23 15:01:00,38.0,15.0,-100.00,North,10,6.0,13.0,39,-99.99,,,-99.99,,2013-02-23 22:01:00,
2013-02-23 15:11:00,39.0,15.0,-100.00,NE,35,9.0,11.0,37,-99.99,,,-99.99,,2013-02-23 22:11:00,
2013-02-23 15:21:00,38.0,13.0,-100.00,NE,40,9.0,12.0,35,-99.99,,,-99.99,,2013-02-23 22:21:00,
2013-02-23 15:31:00,38.0,13.0,-100.00,NE,35,6.0,11.0,35,-99.99,,,-99.99,,2013-02-23 22:31:00,
2013-02-23 15:41:00,38.0,14.0,-100.00,North,10,9.0,10.0,36,-99.99,,,-99.99,,2013-02-23 22:41:00,
2013-02-23 15:51:00,37.0,12.0,-100.00,North,5,9.0,12.0,35,-99.99,,,-99.99,,2013-02-23 22:51:00,
2013-02-23 16:01:00,37.0,12.0,-100.00,North,5,10.0,12.0,35,-99.99,,,-99.99,,2013-02-23 23:01:00,
2013-02-23 16:11:00,37.0,13.0,-100.00,North,350,9.0,11.0,36,-99.99,,,-99.99,,2013-02-23 23:11:00,
2013-02-23 16:21:00,37.0,13.0,-100.00,North,10,6.0,11.0,36,-99.99,,,-99.99,,2013-02-23 23:21:00,
2013-02-23 16:31:00,37.0,12.0,-100.00,NE,35,6.0,9.0,36,-99.99,,,-99.99,,2013-02-23 23:31:00,
2013-02-23 16:41:00,36.0,13.0,-100.00,NNE,30,6.0,7.0,37,-99.99,,,-99.99,,2013-02-23 23:41:00,
2013-02-23 16:52:00,36.0,13.0,-100.00,NNE,25,3.0,6.0,39,-99.99,,,-99.99,,2013-02-23 23:52:00,
2013-02-23 17:01:00,36.0,14.0,-100.00,NNE,15,5.0,7.0,39,-99.99,,,-99.99,,2013-02-24 00:01:00,
2013-02-23 17:11:00,36.0,14.0,-100.00,North,10,6.0,7.0,40,-99.99,,,-99.99,,2013-02-24 00:11:00,
2013-02-23 17:22:00,36.0,15.0,-100.00,North,0,4.0,6.0,41,-99.99,,,-99.99,,2013-02-24 00:22:00,
2013-02-23 17:32:00,33.0,13.0,-100.00,North,10,3.0,6.0,43,-99.99,,,-99.99,,2013-02-24 00:32:00,
2013-02-23 17:42:00,31.0,12.0,-100.00,North,0,6.0,6.0,44,-99.99,,,-99.99,,2013-02-24 00:42:00,
2013-02-23 17:52:00,37.0,19.0,-100.00,NNW,345,6.0,7.0,48,-99.99,,,-99.99,,2013-02-24 00:52:00,
2013-02-23 18:01:00,36.0,19.0,-100.00,North,10,4.0,9.0,49,-99.99,,,-99.99,,2013-02-24 01:01:00,
2013-02-23 18:11:00,35.0,19.0,-100.00,North,10,3.0,6.0,52,-99.99,,,-99.99,,2013-02-24 01:11:00,
2013-02-23 18:22:00,33.0,19.0,-100.00,North,10,7.0,9.0,55,-99.99,,,-99.99,,2013-02-24 01:22:00,
2013-02-23 18:31:00,33.0,18.0,-100.00,NNE,15,6.0,9.0,53,-99.99,,,-99.99,,2013-02-24 01:31:00,
2013-02-23 18:41:00,32.0,20.0,-100.00,North,0,4.0,7.0,59,-99.99,,,-99.99,,2013-02-24 01:41:00,
2013-02-23 18:51:00,29.0,18.0,-100.00,NNW,345,6.0,6.0,62,-99.99,,,-99.99,,2013-02-24 01:51:00,
2013-02-23 19:01:00,29.0,19.0,-100.00,NNW,345,7.0,8.0,66,-99.99,,,-99.99,,2013-02-24 02:01:00,
2013-02-23 19:11:00,29.0,20.0,-100.00,NNW,345,7.0,7.0,67,-99.99,,,-99.99,,2013-02-24 02:11:00,
2013-02-23 19:21:00,29.0,20.0,-100.00,North,0,6.0,7.0,66,-99.99,,,-99.99,,2013-02-24 02:21:00,
2013-02-23 19:32:00,29.0,18.0,-100.00,North,5,6.0,9.0,64,-99.99,,,-99.99,,2013-02-24 02:32:00,
2013-02-23 19:41:00,28.0,19.0,-100.00,NNW,330,7.0,9.0,67,-99.99,,,-99.99,,2013-02-24 02:41:00,
2013-02-23 19:52:00,27.0,18.0,-100.00,NNW,330,6.0,7.0,67,-99.99,,,-99.99,,2013-02-24 02:52:00,
2013-02-23 20:01:00,28.0,19.0,-100.00,NW,315,4.0,7.0,68,-99.99,,,-99.99,,2013-02-24 03:01:00,
2013-02-23 20:11:00,29.0,19.0,-100.00,NW,315,1.0,4.0,65,-99.99,,,-99.99,,2013-02-24 03:11:00,
2013-02-23 20:21:00,29.0,19.0,-100.00,NW,315,1.0,1.0,63,-99.99,,,-99.99,,2013-02-24 03:21:00,
2013-02-23 20:31:00,29.0,18.0,-100.00,WNW,300,4.0,5.0,63,-99.99,,,-99.99,,2013-02-24 03:31:00,
2013-02-23 20:42:00,29.0,19.0,-100.00,NNW,335,6.0,7.0,66,-99.99,,,-99.99,,2013-02-24 03:42:00,
2013-02-23 20:52:00,30.0,20.0,-100.00,NNW,335,7.0,7.0,67,-99.99,,,-99.99,,2013-02-24 03:52:00,
2013-02-23 21:01:00,30.0,20.0,-100.00,NNW,335,7.0,8.0,66,-99.99,,,-99.99,,2013-02-24 04:01:00,
2013-02-23 21:11:00,30.0,20.0,-100.00,NE,35,3.0,7.0,66,-99.99,,,-99.99,,2013-02-24 04:11:00,
2013-02-23 21:21:00,31.0,20.0,-100.00,NE,50,3.0,6.0,64,-99.99,,,-99.99,,2013-02-24 04:21:00,
2013-02-23 21:31:00,31.0,20.0,-100.00,NNW,330,5.0,6.0,64,-99.99,,,-99.99,,2013-02-24 04:31:00,
2013-02-23 21:41:00,31.0,20.0,-100.00,WNW,295,3.0,6.0,64,-99.99,,,-99.99,,2013-02-24 04:41:00,
2013-02-23 21:51:00,31.0,20.0,-100.00,NW,305,1.0,2.0,64,-99.99,,,-99.99,,2013-02-24 04:51:00,
2013-02-23 22:01:00,31.0,20.0,-100.00,West,265,4.0,6.0,64,-99.99,,,-99.99,,2013-02-24 05:01:00,
2013-02-23 22:11:00,31.0,21.0,-100.00,West,280,12.0,12.0,66,-99.99,,,-99.99,,2013-02-24 05:11:00,
2013-02-23 22:22:00,31.0,21.0,-100.00,West,265,11.0,12.0,64,-99.99,,,-99.99,,2013-02-24 05:22:00,
2013-02-23 22:32:00,31.0,21.0,-100.00,West,265,11.0,12.0,64,-99.99,,,-99.99,,2013-02-24 05:32:00,
2013-02-23 22:42:00,33.0,20.0,-100.00,West,280,14.0,18.0,59,-99.99,,,-99.99,,2013-02-24 05:42:00,
2013-02-23 22:52:00,32.0,20.0,-100.00,West,275,4.0,15.0,62,-99.99,,,-99.99,,2013-02-24 05:52:00,
2013-02-23 23:01:00,32.0,21.0,-100.00,NW,315,4.0,6.0,63,-99.99,,,-99.99,,2013-02-24 06:01:00,
2013-02-23 23:11:00,32.0,21.0,-100.00,NNW,330,6.0,9.0,63,-99.99,,,-99.99,,2013-02-24 06:11:00,
2013-02-23 23:21:00,32.0,21.0,-100.00,NNW,330,6.0,8.0,64,-99.99,,,-99.99,,2013-02-24 06:21:00,
2013-02-23 23:31:00,33.0,21.0,-100.00,NNW,345,4.0,9.0,61,-99.99,,,-99.99,,2013-02-24 06:31:00,
2013-02-23 23:41:00,32.0,21.0,-100.00,NNW,330,4.0,7.0,61,-99.99,,,-99.99,,2013-02-24 06:41:00,
2013-02-23 23:52:00,32.0,20.0,-100.00,WNW,295,4.0,5.0,62,-99.99,,,-99.99,,2013-02-24 06:52:00,